EBCI - Charleroi/Gosselies, Belgium
Distance de la station: NE 18km
Mise à jour: 03/02/2023 16:50
plutôt nuageux
plutôt nuageux
 Wind from O
Vent: O 13 km/h
Température: 9°C
Température ressentie: 7°C
Point de rosée: 7°C
Humidité: 87%
Baromètre: 1030 hPa
Ciel: plutôt nuageux
Visibilité: 10 km
Détails du ciel: partiellement nuageux 366 m
plutôt nuageux 488 m
2023/02/03 15:50 EBCI 031550Z 27007KT 230V340 9999 SCT012 BKN016 09/07 Q1030 TEMPO 3500 -DZ BKN008
EBFS - Florennes, Belgium
Distance de la station: ESE 31km
Mise à jour: 03/02/2023 16:55
plutôt nuageux
plutôt nuageux
 Wind from O
Vent: O 22 km/h
Température: 8°C
Température ressentie: 4°C
Point de rosée: 7°C
Humidité: 93%
Baromètre: 1030 hPa
Ciel: plutôt nuageux
Visibilité: 10 km
Détails du ciel: plutôt nuageux 183 m
plutôt nuageux 244 m
2023/02/03 15:55 EBFS 031555Z 28012KT 9999 BKN006 BKN008 08/07 Q1030 YLO YLO TEMPO GRN
EBCV - Chievres, Belgium
Distance de la station: NO 40km
Mise à jour: 03/02/2023 16:55
couvert
couvert
 Wind from O
Vent: O 11 km/h
Température: 10°C
Température ressentie: 8°C
Point de rosée: 8°C
Humidité: 88%
Baromètre: 1031 hPa
Ciel: couvert
Visibilité: 10 km
Détails du ciel: plutôt nuageux 640 m
couvert 762 m
2023/02/03 15:55 EBCV 031555Z AUTO 27006KT 9999 BKN021/// OVC025/// 10/08 Q1031 WHT
 
EBBE - Beauvechain, Belgium
Distance de la station: NE 57km
Mise à jour: 03/02/2023 17:06
plutôt nuageux
plutôt nuageux
 Wind from ONO
Vent: ONO 19 km/h
Température: 10°C
Température ressentie: 7°C
Point de rosée: 7°C
Humidité: 82%
Baromètre: 1030 hPa
Ciel: plutôt nuageux
Visibilité: 10 km
Détails du ciel: partiellement nuageux 549 m
plutôt nuageux 640 m
2023/02/03 16:06 EBBE 031606Z 29010KT 9999 SCT018 BKN021 10/07 Q1030 WHT FCST CANCEL
EBBR - Brussels National, Belgium
Distance de la station: NNE 63km
Mise à jour: 03/02/2023 16:50
plutôt nuageux
plutôt nuageux
 Wind from ONO
Vent: ONO 22 km/h
Température: 10°C
Température ressentie: 7°C
Point de rosée: 7°C
Humidité: 82%
Baromètre: 1030 hPa
Ciel: plutôt nuageux
Visibilité: 10 km
Détails du ciel: plutôt nuageux 701 m
2023/02/03 15:50 EBBR 031550Z 29012KT 9999 BKN023 10/07 Q1030 NOSIG
LFQI - Cambrai/Epinoy, France
Distance de la station: O 82km
Mise à jour: 29/06/2012 12:30
NOT Current

 Wind from SO
Vent: SO 17 km/h
Température: 18°C
Point de rosée: 14°C
Humidité: 78%
Baromètre: 1009 hPa
2012/06/29 10:30 LFQI 291030Z AUTO 22009KT //// // ///////// 18/14 Q1009
 
LFQQ - Lille/Lesquin, France
Distance de la station: ONO 86km
Mise à jour: 03/02/2023 17:00
plutôt nuageux
plutôt nuageux
 Wind from O
Vent: O 22 km/h
Température: 10°C
Température ressentie: 7°C
Point de rosée: 8°C
Humidité: 88%
Baromètre: 1031 hPa
Ciel: plutôt nuageux
Visibilité: 10 km
Détails du ciel: quelques nuages 427 m
plutôt nuageux 762 m
plutôt nuageux 1311 m
2023/02/03 16:00 LFQQ 031600Z AUTO 27012KT 9999 FEW014 BKN025 BKN043 10/08 Q1031 TEMPO BKN013
EBLG - Bierset/Liege, Belgium
Distance de la station: ENE 89km
Mise à jour: 03/02/2023 16:50
plutôt nuageux
plutôt nuageux
 Wind from O
Vent: O 19 km/h
Température: 8°C
Température ressentie: 4°C
Point de rosée: 7°C
Humidité: 93%
Baromètre: 1029 hPa
Ciel: plutôt nuageux
Visibilité: 10 km
Détails du ciel: partiellement nuageux 305 m
plutôt nuageux 1006 m
2023/02/03 15:50 EBLG 031550Z 28010KT 9999 SCT010 BKN033 08/07 Q1029 TEMPO BKN012
EBDT - Schaffen, Belgium
Distance de la station: NE 93km
Mise à jour: 03/02/2023 16:55
couvert
couvert
 Wind from ONO
Vent: ONO 17 km/h
Température: 10°C
Température ressentie: 8°C
Point de rosée: 7°C
Humidité: 82%
Baromètre: 1029 hPa
Ciel: couvert
Visibilité: 10 km
Détails du ciel: couvert 549 m
2023/02/03 15:55 EBDT 031555Z AUTO 29009KT 9999 OVC018/// 10/07 Q1029 WHT
 
EBAW - Antwerp/Deurne, Belgium
Distance de la station: N 96km
Mise à jour: 03/02/2023 16:50
plutôt nuageux
plutôt nuageux
 Wind from O
Vent: O 22 km/h
Température: 10°C
Température ressentie: 7°C
Point de rosée: 7°C
Humidité: 82%
Baromètre: 1030 hPa
Ciel: plutôt nuageux
Visibilité: 10 km
Détails du ciel: partiellement nuageux 549 m
plutôt nuageux 762 m
2023/02/03 15:50 EBAW 031550Z 28012KT 9999 SCT018 BKN025 10/07 Q1030 NOSIG
LFAQ - Bray, France
Distance de la station: OSO 119km
Mise à jour: 03/02/2023 17:00
couvert
couvert
 Wind from ONO
Vent: ONO 26 km/h
Température: 9°C
Température ressentie: 6°C
Point de rosée: 8°C
Humidité: 94%
Baromètre: 1032 hPa
Ciel: couvert
Visibilité: 10 km
Détails du ciel: couvert 366 m
2023/02/03 16:00 LFAQ 031600Z AUTO 29014KT 9999 OVC012 09/08 Q1032 BECMG BKN017
LFSR - Reims/Champagne, France
Distance de la station: S 120km
Mise à jour: 16/04/2012 09:00
NOT Current
partiellement nuageux
partiellement nuageux
 Wind from N
Vent: N 17 km/h
Température: 4°C
Température ressentie: 0°C
Point de rosée: 0°C
Humidité: 75%
Baromètre: 1022 hPa
Ciel: partiellement nuageux
Visibilité: 10 km
2012/04/16 07:00 LFSR 160700Z AUTO 01009KT 340V070 9999 NSC 04/00 Q1022
 
EHWO - Woensdrecht, Netherlands
Distance de la station: N 122km
Mise à jour: 03/02/2023 16:55
plutôt nuageux
plutôt nuageux
 Wind from O
Vent: O 19 km/h
Température: 9°C
Température ressentie: 6°C
Point de rosée: 7°C
Humidité: 87%
Baromètre: 1029 hPa
Ciel: plutôt nuageux
Visibilité: 10 km
Détails du ciel: plutôt nuageux 579 m
plutôt nuageux 701 m
plutôt nuageux 823 m
2023/02/03 15:55 EHWO 031555Z AUTO 27010KT 230V310 9999 BKN019 BKN023 BKN027 09/07 Q1029 WHT
EHBK - Zuid-Limburg, Netherlands
Distance de la station: ENE 123km
Mise à jour: 03/02/2023 16:55
couvert
couvert
 Wind from O
Vent: O 13 km/h
Température: 9°C
Température ressentie: 7°C
Point de rosée: 7°C
Humidité: 87%
Baromètre: 1028 hPa
Ciel: couvert
Visibilité: 10 km
Détails du ciel: partiellement nuageux 518 m
plutôt nuageux 640 m
couvert 823 m
2023/02/03 15:55 EHBK 031555Z AUTO 27007KT 230V320 9999 SCT017/// BKN021/// OVC027/// 09/07 Q1028 NOSIG
EBBL - Kleine-Brogel, Belgium
Distance de la station: NE 124km
Mise à jour: 03/02/2023 16:55
plutôt nuageux
plutôt nuageux
 Wind from O
Vent: O 20 km/h
Température: 10°C
Température ressentie: 7°C
Point de rosée: 7°C
Humidité: 82%
Baromètre: 1028 hPa
Ciel: plutôt nuageux
Visibilité: 10 km
Détails du ciel: partiellement nuageux 518 m
plutôt nuageux 792 m
2023/02/03 15:55 EBBL 031555Z 28011KT 9999 SCT017 BKN026 10/07 Q1028 WHT WHT
 
EBLB - Elsenborn, Belgium
Distance de la station: E 135km
Mise à jour: 03/02/2023 16:55
couvert
couvert
 Wind from ONO
Vent: ONO 22 km/h
Température: 6°C
Température ressentie: 2°C
Point de rosée: 5°C
Humidité: 93%
Baromètre: 1027 hPa
Ciel: couvert
Visibilité: 10 km
Détails du ciel: couvert 122 m
2023/02/03 15:55 EBLB 031555Z AUTO 30012KT 9999 OVC004/// 06/05 Q1027 YLO
EBOS - Oostende Airport, Belgium
Distance de la station: NO 136km
Mise à jour: 03/02/2023 16:50
quelques nuages
quelques nuages
 Wind from O
Vent: O 26 km/h
Température: 8°C
Température ressentie: 4°C
Point de rosée: 6°C
Humidité: 87%
Baromètre: 1031 hPa
Ciel: quelques nuages
Visibilité: 10 km
Détails du ciel: quelques nuages 1067 m
2023/02/03 15:50 EBOS 031550Z 26014KT 9999 FEW035 08/06 Q1031 NOSIG
EBFN - Koksijde, Belgium
Distance de la station: NO 140km
Mise à jour: 03/02/2023 16:55
quelques nuages
quelques nuages
 Wind from O
Vent: O 20 km/h
Température: 11°C
Point de rosée: 7°C
Humidité: 77%
Baromètre: 1031 hPa
Ciel: quelques nuages
Visibilité: 10 km
Détails du ciel: quelques nuages 732 m
2023/02/03 15:55 EBFN 031555Z AUTO 27011KT 9999 FEW024/// 11/07 Q1031 BLU
 
ETNG - Geilenkirchen, Germany
Distance de la station: ENE 142km
Mise à jour: 03/02/2023 16:50
plutôt nuageux
plutôt nuageux
 Wind from O
Vent: O 28 km/h
Température: 10°C
Température ressentie: 7°C
Point de rosée: 8°C
Humidité: 88%
Baromètre: 1028 hPa
Ciel: plutôt nuageux
Visibilité: 10 km
Détails du ciel: plutôt nuageux 549 m
2023/02/03 15:50 ETNG 031550Z 28015KT 9999 BKN018 10/08 Q1028 TEMPO BKN012
EHGR - Gilze-Rijen, Netherlands
Distance de la station: NNE 143km
Mise à jour: 03/02/2023 16:55
couvert
couvert
 Wind from ONO
Vent: ONO 26 km/h
Température: 10°C
Température ressentie: 7°C
Point de rosée: 8°C
Humidité: 88%
Baromètre: 1028 hPa
Ciel: couvert
Visibilité: 10 km
Détails du ciel: couvert 457 m
2023/02/03 15:55 EHGR 031555Z AUTO 29014KT 260V320 9999 OVC015 10/08 Q1028 WHT
EHEH - Eindhoven, Netherlands
Distance de la station: NNE 147km
Mise à jour: 03/02/2023 16:55
couvert
couvert
 Wind from O
Vent: O 19 km/h
Température: 11°C
Point de rosée: 7°C
Humidité: 77%
Baromètre: 1028 hPa
Ciel: couvert
Visibilité: 10 km
Détails du ciel: partiellement nuageux 488 m
plutôt nuageux 610 m
couvert 701 m
2023/02/03 15:55 EHEH 031555Z AUTO 28010KT 240V340 9999 SCT016 BKN020 OVC023 11/07 Q1028 WHT 4000 -DZ SCT010 BKN015
 
ELLX - Luxembourg, Luxembourg
Distance de la station: ESE 162km
Mise à jour: 03/02/2023 16:50
Light drizzle, plutôt nuageux
Light drizzle, plutôt nuageux
 Wind from O
Vent: O 28 km/h
Température: 7°C
Température ressentie: 3°C
Point de rosée: 6°C
Humidité: 93%
Baromètre: 1029 hPa
Résumé: Light Drizzle
Ciel: plutôt nuageux
Visibilité: 5 km
Détails du ciel: plutôt nuageux 152 m
2023/02/03 15:50 ELLX 031550Z 26015KT 5000 -DZ BKN005 07/06 Q1029 NOSIG
EHVK - Volkel, Netherlands
Distance de la station: NE 174km
Mise à jour: 03/02/2023 16:55
couvert
couvert
 Wind from ONO
Vent: ONO 15 km/h
Température: 10°C
Température ressentie: 8°C
Point de rosée: 7°C
Humidité: 82%
Baromètre: 1027 hPa
Ciel: couvert
Visibilité: 10 km
Détails du ciel: quelques nuages 488 m
couvert 1219 m
2023/02/03 15:55 EHVK 031555Z AUTO 29008KT 260V340 9999 FEW016 OVC040 10/07 Q1027 BLU
LFOK - Chalons/Vatry, France
Distance de la station: S 174km
Mise à jour: 03/02/2023 17:00
couvert
couvert
 Wind from OSO
Vent: OSO 20 km/h
Température: 8°C
Température ressentie: 4°C
Point de rosée: 7°C
Humidité: 93%
Baromètre: 1034 hPa
Ciel: couvert
Visibilité: 10 km
Détails du ciel: partiellement nuageux 366 m
couvert 579 m
2023/02/03 16:00 LFOK 031600Z AUTO 25011KT 9999 SCT012 OVC019 08/07 Q1034 BECMG OVC007
Script from Saratoga-Weather.org